Terminal Aerodrome Forecast
Issued by NWS

Home | Current Version | Previous Version | Text Only | Print | Product List | Glossary On
Versions: 1 2 3 4 5 6 7 8 9 10 11 12 13 14 15 16 17
000
FTUS42 KTBW 162300
TAFPIE
TAF
KPIE 162329Z 1700/1724 28007KT P6SM VCSH FEW030 SCT100 BKN150
     FM170600 27006KT P6SM VCTS SCT035CB BKN250
     FM171200 26005KT P6SM VCTS BKN035CB OVC100
     FM171700 27008KT P6SM VCTS BKN030CB OVC100
     FM172200 30006KT P6SM VCTS SCT025CB BKN050 OVC100=

USA.gov is the U.S. government's official web portal to all federal, state and local government web resources and services.